sensor_id;sensor_type;location;lat;lon;timestamp;temperature;humidity
26224;DHT22;14820;48.682;8.890;2023-04-03T00:00:04;4.00;99.90
26224;DHT22;14820;48.682;8.890;2023-04-03T00:02:30;4.00;99.90
26224;DHT22;14820;48.682;8.890;2023-04-03T00:04:56;4.00;99.90
26224;DHT22;14820;48.682;8.890;2023-04-03T00:07:21;4.10;99.90
26224;DHT22;14820;48.682;8.890;2023-04-03T00:09:47;4.10;99.90
26224;DHT22;14820;48.682;8.890;2023-04-03T00:12:13;4.10;99.90
26224;DHT22;14820;48.682;8.890;2023-04-03T00:14:38;4.00;99.90
26224;DHT22;14820;48.682;8.890;2023-04-03T00:17:04;4.00;99.90
26224;DHT22;14820;48.682;8.890;2023-04-03T00:19:30;4.00;99.90
26224;DHT22;14820;48.682;8.890;2023-04-03T00:21:56;4.00;99.90
26224;DHT22;14820;48.682;8.890;2023-04-03T00:24:22;4.10;99.90
26224;DHT22;14820;48.682;8.890;2023-04-03T00:26:47;4.00;99.90
26224;DHT22;14820;48.682;8.890;2023-04-03T00:29:13;3.90;99.90
26224;DHT22;14820;48.682;8.890;2023-04-03T00:31:39;3.90;99.90
26224;DHT22;14820;48.682;8.890;2023-04-03T00:34:05;3.90;99.90
26224;DHT22;14820;48.682;8.890;2023-04-03T00:36:31;3.90;99.90
26224;DHT22;14820;48.682;8.890;2023-04-03T00:38:56;3.90;99.90
26224;DHT22;14820;48.682;8.890;2023-04-03T00:41:22;3.90;99.90
26224;DHT22;14820;48.682;8.890;2023-04-03T00:43:47;3.90;99.90
26224;DHT22;14820;48.682;8.890;2023-04-03T00:46:13;3.90;99.90
26224;DHT22;14820;48.682;8.890;2023-04-03T00:48:44;3.90;99.90
26224;DHT22;14820;48.682;8.890;2023-04-03T00:51:17;4.00;99.90
26224;DHT22;14820;48.682;8.890;2023-04-03T00:53:51;3.90;99.90
26224;DHT22;14820;48.682;8.890;2023-04-03T00:56:21;3.90;99.90
26224;DHT22;14820;48.682;8.890;2023-04-03T00:58:53;3.90;99.90
26224;DHT22;14820;48.682;8.890;2023-04-03T01:01:23;3.90;99.90
26224;DHT22;14820;48.682;8.890;2023-04-03T01:03:50;3.90;99.90
26224;DHT22;14820;48.682;8.890;2023-04-03T01:06:18;3.90;99.90
26224;DHT22;14820;48.682;8.890;2023-04-03T01:08:48;3.90;99.90
26224;DHT22;14820;48.682;8.890;2023-04-03T01:11:15;3.90;99.90
26224;DHT22;14820;48.682;8.890;2023-04-03T01:13:41;3.80;99.90
26224;DHT22;14820;48.682;8.890;2023-04-03T01:16:07;3.80;99.90
26224;DHT22;14820;48.682;8.890;2023-04-03T01:18:34;3.80;99.90
26224;DHT22;14820;48.682;8.890;2023-04-03T01:26:24;3.90;99.90
26224;DHT22;14820;48.682;8.890;2023-04-03T01:28:53;4.00;99.90
26224;DHT22;14820;48.682;8.890;2023-04-03T01:31:26;3.90;99.90
26224;DHT22;14820;48.682;8.890;2023-04-03T01:33:53;3.90;99.90
26224;DHT22;14820;48.682;8.890;2023-04-03T01:36:28;3.90;99.90
26224;DHT22;14820;48.682;8.890;2023-04-03T01:38:55;3.80;99.90
26224;DHT22;14820;48.682;8.890;2023-04-03T01:41:22;3.90;99.90
26224;DHT22;14820;48.682;8.890;2023-04-03T01:43:48;3.90;99.90
26224;DHT22;14820;48.682;8.890;2023-04-03T01:46:18;3.70;99.90
26224;DHT22;14820;48.682;8.890;2023-04-03T01:48:44;3.80;99.90
26224;DHT22;14820;48.682;8.890;2023-04-03T01:51:10;3.70;99.90
26224;DHT22;14820;48.682;8.890;2023-04-03T01:53:36;3.70;99.90
26224;DHT22;14820;48.682;8.890;2023-04-03T01:56:01;3.50;99.90
26224;DHT22;14820;48.682;8.890;2023-04-03T01:58:27;3.50;99.90
26224;DHT22;14820;48.682;8.890;2023-04-03T02:00:53;3.50;99.90
26224;DHT22;14820;48.682;8.890;2023-04-03T02:03:19;3.50;99.90
26224;DHT22;14820;48.682;8.890;2023-04-03T02:05:45;3.50;99.90
26224;DHT22;14820;48.682;8.890;2023-04-03T02:08:11;3.60;99.90
26224;DHT22;14820;48.682;8.890;2023-04-03T02:10:37;3.50;99.90
26224;DHT22;14820;48.682;8.890;2023-04-03T02:13:02;3.50;99.90
26224;DHT22;14820;48.682;8.890;2023-04-03T02:15:28;3.50;99.90
26224;DHT22;14820;48.682;8.890;2023-04-03T02:17:54;3.40;99.90
26224;DHT22;14820;48.682;8.890;2023-04-03T02:20:20;3.50;99.90
26224;DHT22;14820;48.682;8.890;2023-04-03T02:22:45;3.40;99.90
26224;DHT22;14820;48.682;8.890;2023-04-03T02:25:11;3.30;99.90
26224;DHT22;14820;48.682;8.890;2023-04-03T02:27:38;3.40;99.90
26224;DHT22;14820;48.682;8.890;2023-04-03T02:30:04;3.40;99.90
26224;DHT22;14820;48.682;8.890;2023-04-03T02:32:31;3.40;99.90
26224;DHT22;14820;48.682;8.890;2023-04-03T02:34:57;3.40;99.90
26224;DHT22;14820;48.682;8.890;2023-04-03T02:37:22;3.30;99.90
26224;DHT22;14820;48.682;8.890;2023-04-03T02:39:48;3.40;99.90
26224;DHT22;14820;48.682;8.890;2023-04-03T02:42:13;3.40;99.90
26224;DHT22;14820;48.682;8.890;2023-04-03T02:44:39;3.50;99.90
26224;DHT22;14820;48.682;8.890;2023-04-03T02:47:05;3.40;99.90
26224;DHT22;14820;48.682;8.890;2023-04-03T02:49:31;3.40;99.90
26224;DHT22;14820;48.682;8.890;2023-04-03T02:51:57;3.50;99.90
26224;DHT22;14820;48.682;8.890;2023-04-03T02:54:23;3.50;99.90
26224;DHT22;14820;48.682;8.890;2023-04-03T02:56:50;3.50;99.90
26224;DHT22;14820;48.682;8.890;2023-04-03T02:59:16;3.60;99.90
26224;DHT22;14820;48.682;8.890;2023-04-03T03:01:41;3.50;99.90
26224;DHT22;14820;48.682;8.890;2023-04-03T03:04:07;3.50;99.90
26224;DHT22;14820;48.682;8.890;2023-04-03T03:06:33;3.50;99.90
26224;DHT22;14820;48.682;8.890;2023-04-03T03:08:58;3.50;99.90
26224;DHT22;14820;48.682;8.890;2023-04-03T03:11:24;3.50;99.90
26224;DHT22;14820;48.682;8.890;2023-04-03T03:13:50;3.50;99.90
26224;DHT22;14820;48.682;8.890;2023-04-03T03:16:16;3.50;99.90
26224;DHT22;14820;48.682;8.890;2023-04-03T03:18:42;3.50;99.90
26224;DHT22;14820;48.682;8.890;2023-04-03T03:21:09;3.50;99.90
26224;DHT22;14820;48.682;8.890;2023-04-03T03:23:35;3.50;99.90
26224;DHT22;14820;48.682;8.890;2023-04-03T03:26:06;3.50;99.90
26224;DHT22;14820;48.682;8.890;2023-04-03T03:28:33;3.50;99.90
26224;DHT22;14820;48.682;8.890;2023-04-03T03:30:59;3.60;99.90
26224;DHT22;14820;48.682;8.890;2023-04-03T03:33:25;3.50;99.90
26224;DHT22;14820;48.682;8.890;2023-04-03T03:35:52;3.40;99.90
26224;DHT22;14820;48.682;8.890;2023-04-03T03:38:18;3.40;99.90
26224;DHT22;14820;48.682;8.890;2023-04-03T03:40:44;3.40;99.90
26224;DHT22;14820;48.682;8.890;2023-04-03T03:43:10;3.50;99.90
26224;DHT22;14820;48.682;8.890;2023-04-03T03:45:35;3.40;99.90
26224;DHT22;14820;48.682;8.890;2023-04-03T03:48:02;3.40;99.90
26224;DHT22;14820;48.682;8.890;2023-04-03T03:50:28;3.40;99.90
26224;DHT22;14820;48.682;8.890;2023-04-03T03:52:53;3.40;99.90
26224;DHT22;14820;48.682;8.890;2023-04-03T03:55:19;3.40;99.90
26224;DHT22;14820;48.682;8.890;2023-04-03T03:57:45;3.40;99.90
26224;DHT22;14820;48.682;8.890;2023-04-03T04:00:11;3.40;99.90
26224;DHT22;14820;48.682;8.890;2023-04-03T04:02:37;3.40;99.90
26224;DHT22;14820;48.682;8.890;2023-04-03T04:05:02;3.40;99.90
26224;DHT22;14820;48.682;8.890;2023-04-03T04:07:28;3.40;99.90
26224;DHT22;14820;48.682;8.890;2023-04-03T04:09:54;3.40;99.90
26224;DHT22;14820;48.682;8.890;2023-04-03T04:12:20;3.40;99.90
26224;DHT22;14820;48.682;8.890;2023-04-03T04:14:47;3.40;99.90
26224;DHT22;14820;48.682;8.890;2023-04-03T04:17:13;3.40;99.90
26224;DHT22;14820;48.682;8.890;2023-04-03T04:19:39;3.40;99.90
26224;DHT22;14820;48.682;8.890;2023-04-03T04:22:05;3.40;99.90
26224;DHT22;14820;48.682;8.890;2023-04-03T04:24:31;3.40;99.90
26224;DHT22;14820;48.682;8.890;2023-04-03T04:26:56;3.40;99.90
26224;DHT22;14820;48.682;8.890;2023-04-03T04:29:22;3.40;99.90
26224;DHT22;14820;48.682;8.890;2023-04-03T04:31:48;3.40;99.90
26224;DHT22;14820;48.682;8.890;2023-04-03T04:34:14;3.40;99.90
26224;DHT22;14820;48.682;8.890;2023-04-03T04:36:39;3.40;99.90
26224;DHT22;14820;48.682;8.890;2023-04-03T04:39:05;3.40;99.90
26224;DHT22;14820;48.682;8.890;2023-04-03T04:41:31;3.40;99.90
26224;DHT22;14820;48.682;8.890;2023-04-03T04:43:57;3.30;99.90
26224;DHT22;14820;48.682;8.890;2023-04-03T04:46:23;3.40;99.90
26224;DHT22;14820;48.682;8.890;2023-04-03T04:48:49;3.40;99.90
26224;DHT22;14820;48.682;8.890;2023-04-03T04:51:15;3.40;99.90
26224;DHT22;14820;48.682;8.890;2023-04-03T04:53:41;3.40;99.90
26224;DHT22;14820;48.682;8.890;2023-04-03T04:56:07;3.30;99.90
26224;DHT22;14820;48.682;8.890;2023-04-03T04:58:33;3.40;99.90
26224;DHT22;14820;48.682;8.890;2023-04-03T05:01:03;3.30;99.90
26224;DHT22;14820;48.682;8.890;2023-04-03T05:03:30;3.20;99.90
26224;DHT22;14820;48.682;8.890;2023-04-03T05:05:56;3.20;99.90
26224;DHT22;14820;48.682;8.890;2023-04-03T05:08:21;3.20;99.90
26224;DHT22;14820;48.682;8.890;2023-04-03T05:10:47;3.30;99.90
26224;DHT22;14820;48.682;8.890;2023-04-03T05:13:13;3.30;99.90
26224;DHT22;14820;48.682;8.890;2023-04-03T05:15:40;3.30;99.90
26224;DHT22;14820;48.682;8.890;2023-04-03T05:18:05;3.30;99.90
26224;DHT22;14820;48.682;8.890;2023-04-03T05:20:32;3.20;99.90
26224;DHT22;14820;48.682;8.890;2023-04-03T05:22:57;3.30;99.90
26224;DHT22;14820;48.682;8.890;2023-04-03T05:25:25;3.30;99.90
26224;DHT22;14820;48.682;8.890;2023-04-03T05:27:50;3.30;99.90
26224;DHT22;14820;48.682;8.890;2023-04-03T05:30:16;3.20;99.90
26224;DHT22;14820;48.682;8.890;2023-04-03T05:32:43;3.30;99.90
26224;DHT22;14820;48.682;8.890;2023-04-03T05:35:09;3.20;99.90
26224;DHT22;14820;48.682;8.890;2023-04-03T05:37:35;3.30;99.90
26224;DHT22;14820;48.682;8.890;2023-04-03T05:40:02;3.30;99.90
26224;DHT22;14820;48.682;8.890;2023-04-03T05:42:27;3.30;99.90
26224;DHT22;14820;48.682;8.890;2023-04-03T05:44:53;3.30;99.90
26224;DHT22;14820;48.682;8.890;2023-04-03T05:47:19;3.30;99.90
26224;DHT22;14820;48.682;8.890;2023-04-03T05:49:45;3.30;99.90
26224;DHT22;14820;48.682;8.890;2023-04-03T05:52:25;3.30;99.90
26224;DHT22;14820;48.682;8.890;2023-04-03T05:54:52;3.30;99.90
26224;DHT22;14820;48.682;8.890;2023-04-03T05:57:18;3.30;99.90
26224;DHT22;14820;48.682;8.890;2023-04-03T05:59:46;3.40;99.90
26224;DHT22;14820;48.682;8.890;2023-04-03T06:02:14;3.30;99.90
26224;DHT22;14820;48.682;8.890;2023-04-03T06:04:41;3.40;99.90
26224;DHT22;14820;48.682;8.890;2023-04-03T06:07:07;3.40;99.90
26224;DHT22;14820;48.682;8.890;2023-04-03T06:09:35;3.40;99.90
26224;DHT22;14820;48.682;8.890;2023-04-03T06:12:01;3.50;99.90
26224;DHT22;14820;48.682;8.890;2023-04-03T06:14:27;3.50;99.90
26224;DHT22;14820;48.682;8.890;2023-04-03T06:16:53;3.60;99.90
26224;DHT22;14820;48.682;8.890;2023-04-03T06:19:20;3.60;99.90
26224;DHT22;14820;48.682;8.890;2023-04-03T06:21:46;3.60;99.90
26224;DHT22;14820;48.682;8.890;2023-04-03T06:24:19;3.60;99.90
26224;DHT22;14820;48.682;8.890;2023-04-03T06:26:47;3.60;99.90
26224;DHT22;14820;48.682;8.890;2023-04-03T06:29:14;3.60;99.90
26224;DHT22;14820;48.682;8.890;2023-04-03T06:31:39;3.60;99.90
26224;DHT22;14820;48.682;8.890;2023-04-03T06:34:12;3.50;99.90
26224;DHT22;14820;48.682;8.890;2023-04-03T06:36:38;3.60;99.90
26224;DHT22;14820;48.682;8.890;2023-04-03T06:39:05;3.50;99.90
26224;DHT22;14820;48.682;8.890;2023-04-03T06:41:30;3.50;99.90
26224;DHT22;14820;48.682;8.890;2023-04-03T06:43:56;3.50;99.90
26224;DHT22;14820;48.682;8.890;2023-04-03T06:46:24;3.50;99.90
26224;DHT22;14820;48.682;8.890;2023-04-03T06:48:50;3.60;99.90
26224;DHT22;14820;48.682;8.890;2023-04-03T06:51:22;3.60;99.90
26224;DHT22;14820;48.682;8.890;2023-04-03T06:53:49;3.60;99.90
26224;DHT22;14820;48.682;8.890;2023-04-03T06:56:16;3.60;99.90
26224;DHT22;14820;48.682;8.890;2023-04-03T06:58:43;3.60;99.90
26224;DHT22;14820;48.682;8.890;2023-04-03T07:01:10;3.70;99.90
26224;DHT22;14820;48.682;8.890;2023-04-03T07:03:38;3.80;99.90
26224;DHT22;14820;48.682;8.890;2023-04-03T07:06:05;3.80;99.90
26224;DHT22;14820;48.682;8.890;2023-04-03T07:08:31;3.90;99.90
26224;DHT22;14820;48.682;8.890;2023-04-03T07:10:57;3.90;99.90
26224;DHT22;14820;48.682;8.890;2023-04-03T07:13:23;3.90;99.90
26224;DHT22;14820;48.682;8.890;2023-04-03T07:15:48;4.00;99.90
26224;DHT22;14820;48.682;8.890;2023-04-03T07:18:14;4.00;99.90
26224;DHT22;14820;48.682;8.890;2023-04-03T07:20:40;4.00;99.90
26224;DHT22;14820;48.682;8.890;2023-04-03T07:23:06;4.00;99.90
26224;DHT22;14820;48.682;8.890;2023-04-03T07:25:32;4.10;99.90
26224;DHT22;14820;48.682;8.890;2023-04-03T07:27:59;4.10;99.90
26224;DHT22;14820;48.682;8.890;2023-04-03T07:30:24;4.10;99.90
26224;DHT22;14820;48.682;8.890;2023-04-03T07:32:50;4.10;99.90
26224;DHT22;14820;48.682;8.890;2023-04-03T07:35:16;4.20;99.90
26224;DHT22;14820;48.682;8.890;2023-04-03T07:37:42;4.20;99.90
26224;DHT22;14820;48.682;8.890;2023-04-03T07:40:09;4.20;99.90
26224;DHT22;14820;48.682;8.890;2023-04-03T07:42:35;4.10;99.90
26224;DHT22;14820;48.682;8.890;2023-04-03T07:45:04;4.20;99.90
26224;DHT22;14820;48.682;8.890;2023-04-03T07:47:30;4.20;99.90
26224;DHT22;14820;48.682;8.890;2023-04-03T07:49:57;4.30;99.90
26224;DHT22;14820;48.682;8.890;2023-04-03T07:52:23;4.30;99.90
26224;DHT22;14820;48.682;8.890;2023-04-03T07:54:49;4.30;99.90
26224;DHT22;14820;48.682;8.890;2023-04-03T07:57:15;4.30;99.90
26224;DHT22;14820;48.682;8.890;2023-04-03T07:59:41;4.40;99.90
26224;DHT22;14820;48.682;8.890;2023-04-03T08:02:11;4.40;99.90
26224;DHT22;14820;48.682;8.890;2023-04-03T08:04:38;4.40;99.90
26224;DHT22;14820;48.682;8.890;2023-04-03T08:07:04;4.40;99.90
26224;DHT22;14820;48.682;8.890;2023-04-03T08:09:30;4.50;99.90
26224;DHT22;14820;48.682;8.890;2023-04-03T08:11:55;4.60;99.90
26224;DHT22;14820;48.682;8.890;2023-04-03T08:14:21;4.60;99.90
26224;DHT22;14820;48.682;8.890;2023-04-03T08:16:47;4.60;99.90
26224;DHT22;14820;48.682;8.890;2023-04-03T08:19:14;4.70;99.90
26224;DHT22;14820;48.682;8.890;2023-04-03T08:21:41;4.80;99.90
26224;DHT22;14820;48.682;8.890;2023-04-03T08:24:08;4.70;99.90
26224;DHT22;14820;48.682;8.890;2023-04-03T08:26:34;4.70;99.90
26224;DHT22;14820;48.682;8.890;2023-04-03T08:29:00;4.80;99.90
26224;DHT22;14820;48.682;8.890;2023-04-03T08:31:26;4.80;99.90
26224;DHT22;14820;48.682;8.890;2023-04-03T08:33:52;4.80;99.90
26224;DHT22;14820;48.682;8.890;2023-04-03T08:36:28;4.80;99.90
26224;DHT22;14820;48.682;8.890;2023-04-03T08:38:56;4.80;99.90
26224;DHT22;14820;48.682;8.890;2023-04-03T08:41:35;4.90;99.90
26224;DHT22;14820;48.682;8.890;2023-04-03T08:49:56;5.00;99.90
26224;DHT22;14820;48.682;8.890;2023-04-03T08:52:38;5.10;99.90
26224;DHT22;14820;48.682;8.890;2023-04-03T08:55:33;5.30;99.90
26224;DHT22;14820;48.682;8.890;2023-04-03T08:58:03;5.40;99.90
26224;DHT22;14820;48.682;8.890;2023-04-03T09:00:51;5.70;99.90
26224;DHT22;14820;48.682;8.890;2023-04-03T09:03:21;5.90;99.90
26224;DHT22;14820;48.682;8.890;2023-04-03T09:05:57;5.90;99.90
26224;DHT22;14820;48.682;8.890;2023-04-03T09:08:31;5.80;99.90
26224;DHT22;14820;48.682;8.890;2023-04-03T09:11:09;5.80;99.90
26224;DHT22;14820;48.682;8.890;2023-04-03T09:14:04;5.70;99.90
26224;DHT22;14820;48.682;8.890;2023-04-03T09:16:39;5.70;99.90
26224;DHT22;14820;48.682;8.890;2023-04-03T09:21:39;5.70;99.90
26224;DHT22;14820;48.682;8.890;2023-04-03T09:24:11;5.80;99.90
26224;DHT22;14820;48.682;8.890;2023-04-03T09:26:56;5.80;99.90
26224;DHT22;14820;48.682;8.890;2023-04-03T09:29:26;5.80;99.90
26224;DHT22;14820;48.682;8.890;2023-04-03T09:32:36;5.80;99.90
26224;DHT22;14820;48.682;8.890;2023-04-03T09:35:06;5.80;99.90
26224;DHT22;14820;48.682;8.890;2023-04-03T09:37:50;5.80;99.90
26224;DHT22;14820;48.682;8.890;2023-04-03T09:43:00;5.70;99.90
26224;DHT22;14820;48.682;8.890;2023-04-03T09:45:35;5.60;99.90
26224;DHT22;14820;48.682;8.890;2023-04-03T09:48:17;5.60;99.90
26224;DHT22;14820;48.682;8.890;2023-04-03T09:53:43;5.60;99.90
26224;DHT22;14820;48.682;8.890;2023-04-03T09:58:46;5.60;99.90
26224;DHT22;14820;48.682;8.890;2023-04-03T10:01:30;5.60;99.90
26224;DHT22;14820;48.682;8.890;2023-04-03T10:04:10;5.50;99.90
26224;DHT22;14820;48.682;8.890;2023-04-03T10:09:28;5.50;99.90
26224;DHT22;14820;48.682;8.890;2023-04-03T10:11:58;5.50;99.90
26224;DHT22;14820;48.682;8.890;2023-04-03T10:14:25;5.50;99.90
26224;DHT22;14820;48.682;8.890;2023-04-03T10:19:41;5.40;99.90
26224;DHT22;14820;48.682;8.890;2023-04-03T10:30:28;5.50;99.90
26224;DHT22;14820;48.682;8.890;2023-04-03T10:36:17;5.60;99.90
26224;DHT22;14820;48.682;8.890;2023-04-03T10:39:11;5.70;99.90
26224;DHT22;14820;48.682;8.890;2023-04-03T10:44:47;5.80;99.90
26224;DHT22;14820;48.682;8.890;2023-04-03T10:47:28;5.90;99.90
26224;DHT22;14820;48.682;8.890;2023-04-03T10:56:01;5.90;99.90
26224;DHT22;14820;48.682;8.890;2023-04-03T10:58:30;5.90;99.90
26224;DHT22;14820;48.682;8.890;2023-04-03T11:01:08;6.00;99.90
26224;DHT22;14820;48.682;8.890;2023-04-03T11:03:47;5.90;99.90
26224;DHT22;14820;48.682;8.890;2023-04-03T11:06:16;5.90;99.90
26224;DHT22;14820;48.682;8.890;2023-04-03T11:09:02;5.80;99.90
26224;DHT22;14820;48.682;8.890;2023-04-03T11:11:37;5.80;99.90
26224;DHT22;14820;48.682;8.890;2023-04-03T11:14:10;5.80;99.90
26224;DHT22;14820;48.682;8.890;2023-04-03T11:16:45;5.90;99.90
26224;DHT22;14820;48.682;8.890;2023-04-03T11:19:21;5.90;99.90
26224;DHT22;14820;48.682;8.890;2023-04-03T11:21:57;6.00;99.90
26224;DHT22;14820;48.682;8.890;2023-04-03T11:24:29;6.00;99.90
26224;DHT22;14820;48.682;8.890;2023-04-03T11:26:57;6.10;99.90
26224;DHT22;14820;48.682;8.890;2023-04-03T11:29:27;6.00;99.90
26224;DHT22;14820;48.682;8.890;2023-04-03T11:34:47;5.80;99.90
26224;DHT22;14820;48.682;8.890;2023-04-03T11:37:53;5.80;99.90
26224;DHT22;14820;48.682;8.890;2023-04-03T11:40:31;5.70;99.90
26224;DHT22;14820;48.682;8.890;2023-04-03T11:43:15;5.80;99.90
26224;DHT22;14820;48.682;8.890;2023-04-03T11:45:50;5.70;99.90
26224;DHT22;14820;48.682;8.890;2023-04-03T11:50:45;5.80;99.90
26224;DHT22;14820;48.682;8.890;2023-04-03T11:58:25;5.80;99.90
26224;DHT22;14820;48.682;8.890;2023-04-03T12:24:00;5.60;99.90
26224;DHT22;14820;48.682;8.890;2023-04-03T12:26:46;5.60;99.90
26224;DHT22;14820;48.682;8.890;2023-04-03T12:29:37;5.60;99.90
26224;DHT22;14820;48.682;8.890;2023-04-03T12:41:02;5.60;99.90
26224;DHT22;14820;48.682;8.890;2023-04-03T12:46:18;5.80;99.90
26224;DHT22;14820;48.682;8.890;2023-04-03T12:48:49;5.90;99.90
26224;DHT22;14820;48.682;8.890;2023-04-03T12:51:24;5.90;99.90
26224;DHT22;14820;48.682;8.890;2023-04-03T12:53:51;6.00;99.90
26224;DHT22;14820;48.682;8.890;2023-04-03T12:56:28;6.00;99.90
26224;DHT22;14820;48.682;8.890;2023-04-03T12:59:41;5.90;99.90
26224;DHT22;14820;48.682;8.890;2023-04-03T13:01:43;5.90;99.90
26224;DHT22;14820;48.682;8.890;2023-04-03T13:04:10;5.90;99.90
26224;DHT22;14820;48.682;8.890;2023-04-03T13:06:43;5.90;99.90
26224;DHT22;14820;48.682;8.890;2023-04-03T13:09:35;5.90;99.90
26224;DHT22;14820;48.682;8.890;2023-04-03T13:12:11;5.80;99.90
26224;DHT22;14820;48.682;8.890;2023-04-03T13:14:38;5.90;99.90
26224;DHT22;14820;48.682;8.890;2023-04-03T13:17:14;5.80;99.90
26224;DHT22;14820;48.682;8.890;2023-04-03T13:19:41;5.90;99.90
26224;DHT22;14820;48.682;8.890;2023-04-03T13:22:27;5.90;99.90
26224;DHT22;14820;48.682;8.890;2023-04-03T13:24:55;6.00;99.90
26224;DHT22;14820;48.682;8.890;2023-04-03T13:27:23;6.10;99.90
26224;DHT22;14820;48.682;8.890;2023-04-03T13:29:51;6.20;99.90
26224;DHT22;14820;48.682;8.890;2023-04-03T13:32:23;6.30;99.90
26224;DHT22;14820;48.682;8.890;2023-04-03T13:34:51;6.40;99.90
26224;DHT22;14820;48.682;8.890;2023-04-03T13:37:30;6.40;99.90
26224;DHT22;14820;48.682;8.890;2023-04-03T13:42:38;6.50;99.90
26224;DHT22;14820;48.682;8.890;2023-04-03T13:45:23;6.50;99.90
26224;DHT22;14820;48.682;8.890;2023-04-03T13:53:19;6.40;99.90
26224;DHT22;14820;48.682;8.890;2023-04-03T13:56:00;6.40;99.90
26224;DHT22;14820;48.682;8.890;2023-04-03T13:58:31;6.40;99.90
26224;DHT22;14820;48.682;8.890;2023-04-03T14:01:10;6.40;99.90
26224;DHT22;14820;48.682;8.890;2023-04-03T14:03:46;6.40;99.90
26224;DHT22;14820;48.682;8.890;2023-04-03T14:06:15;6.40;99.90
26224;DHT22;14820;48.682;8.890;2023-04-03T14:08:48;6.50;99.90
26224;DHT22;14820;48.682;8.890;2023-04-03T14:11:26;6.60;99.90
26224;DHT22;14820;48.682;8.890;2023-04-03T14:14:01;6.60;99.90
26224;DHT22;14820;48.682;8.890;2023-04-03T14:16:32;6.60;99.90
26224;DHT22;14820;48.682;8.890;2023-04-03T14:18:58;6.60;99.90
26224;DHT22;14820;48.682;8.890;2023-04-03T14:21:24;6.50;99.90
26224;DHT22;14820;48.682;8.890;2023-04-03T14:23:50;6.50;99.90
26224;DHT22;14820;48.682;8.890;2023-04-03T14:26:21;6.50;99.90
26224;DHT22;14820;48.682;8.890;2023-04-03T14:28:52;6.50;99.90
26224;DHT22;14820;48.682;8.890;2023-04-03T14:31:19;6.40;99.90
26224;DHT22;14820;48.682;8.890;2023-04-03T14:33:46;6.40;99.90
26224;DHT22;14820;48.682;8.890;2023-04-03T14:36:20;6.30;99.90
26224;DHT22;14820;48.682;8.890;2023-04-03T14:38:47;6.20;99.90
26224;DHT22;14820;48.682;8.890;2023-04-03T14:41:16;6.20;99.90
26224;DHT22;14820;48.682;8.890;2023-04-03T14:43:42;6.30;99.90
26224;DHT22;14820;48.682;8.890;2023-04-03T14:46:17;6.30;99.90
26224;DHT22;14820;48.682;8.890;2023-04-03T14:48:44;6.40;99.90
26224;DHT22;14820;48.682;8.890;2023-04-03T14:51:14;6.40;99.90
26224;DHT22;14820;48.682;8.890;2023-04-03T14:53:42;6.40;99.90
26224;DHT22;14820;48.682;8.890;2023-04-03T14:56:29;6.40;99.90
26224;DHT22;14820;48.682;8.890;2023-04-03T14:58:59;6.40;99.90
26224;DHT22;14820;48.682;8.890;2023-04-03T15:01:29;6.40;99.90
26224;DHT22;14820;48.682;8.890;2023-04-03T15:04:00;6.50;99.90
26224;DHT22;14820;48.682;8.890;2023-04-03T15:06:26;6.40;99.90
26224;DHT22;14820;48.682;8.890;2023-04-03T15:08:52;6.40;99.90
26224;DHT22;14820;48.682;8.890;2023-04-03T15:11:18;6.40;99.90
26224;DHT22;14820;48.682;8.890;2023-04-03T15:13:44;6.40;99.90
26224;DHT22;14820;48.682;8.890;2023-04-03T15:16:17;6.40;99.90
26224;DHT22;14820;48.682;8.890;2023-04-03T15:18:47;6.40;99.90
26224;DHT22;14820;48.682;8.890;2023-04-03T15:21:13;6.30;99.90
26224;DHT22;14820;48.682;8.890;2023-04-03T15:23:40;6.30;99.90
26224;DHT22;14820;48.682;8.890;2023-04-03T15:26:07;6.20;99.90
26224;DHT22;14820;48.682;8.890;2023-04-03T15:28:42;6.20;99.90
26224;DHT22;14820;48.682;8.890;2023-04-03T15:31:08;6.10;99.90
26224;DHT22;14820;48.682;8.890;2023-04-03T15:33:35;6.30;99.90
26224;DHT22;14820;48.682;8.890;2023-04-03T15:36:01;6.60;99.90
26224;DHT22;14820;48.682;8.890;2023-04-03T15:38:27;6.90;99.90
26224;DHT22;14820;48.682;8.890;2023-04-03T15:40:55;7.30;99.90
26224;DHT22;14820;48.682;8.890;2023-04-03T15:43:24;7.60;99.90
26224;DHT22;14820;48.682;8.890;2023-04-03T15:45:49;7.50;99.90
26224;DHT22;14820;48.682;8.890;2023-04-03T15:48:16;7.20;99.90
26224;DHT22;14820;48.682;8.890;2023-04-03T15:50:47;7.10;99.90
26224;DHT22;14820;48.682;8.890;2023-04-03T15:53:13;7.00;99.90
26224;DHT22;14820;48.682;8.890;2023-04-03T15:55:39;6.90;99.90
26224;DHT22;14820;48.682;8.890;2023-04-03T15:58:06;6.80;99.90
26224;DHT22;14820;48.682;8.890;2023-04-03T16:00:32;6.70;99.90
26224;DHT22;14820;48.682;8.890;2023-04-03T16:03:08;6.60;99.90
26224;DHT22;14820;48.682;8.890;2023-04-03T16:05:35;6.50;99.90
26224;DHT22;14820;48.682;8.890;2023-04-03T16:08:02;6.50;99.90
26224;DHT22;14820;48.682;8.890;2023-04-03T16:10:28;6.40;99.90
26224;DHT22;14820;48.682;8.890;2023-04-03T16:12:55;6.40;99.90
26224;DHT22;14820;48.682;8.890;2023-04-03T16:15:20;6.60;99.90
26224;DHT22;14820;48.682;8.890;2023-04-03T16:17:46;6.60;99.90
26224;DHT22;14820;48.682;8.890;2023-04-03T16:20:14;6.60;99.90
26224;DHT22;14820;48.682;8.890;2023-04-03T16:22:40;6.50;99.90
26224;DHT22;14820;48.682;8.890;2023-04-03T16:25:08;6.40;99.90
26224;DHT22;14820;48.682;8.890;2023-04-03T16:27:34;6.50;99.90
26224;DHT22;14820;48.682;8.890;2023-04-03T16:30:00;6.80;99.90
26224;DHT22;14820;48.682;8.890;2023-04-03T16:32:29;6.90;99.90
26224;DHT22;14820;48.682;8.890;2023-04-03T16:34:55;6.80;99.90
26224;DHT22;14820;48.682;8.890;2023-04-03T16:37:21;6.70;99.90
26224;DHT22;14820;48.682;8.890;2023-04-03T16:39:47;6.60;99.90
26224;DHT22;14820;48.682;8.890;2023-04-03T16:42:13;6.50;99.90
26224;DHT22;14820;48.682;8.890;2023-04-03T16:44:39;6.40;99.90
26224;DHT22;14820;48.682;8.890;2023-04-03T16:47:06;6.30;99.90
26224;DHT22;14820;48.682;8.890;2023-04-03T16:49:33;6.30;99.90
26224;DHT22;14820;48.682;8.890;2023-04-03T16:52:03;6.60;99.90
26224;DHT22;14820;48.682;8.890;2023-04-03T16:54:30;6.80;99.90
26224;DHT22;14820;48.682;8.890;2023-04-03T16:56:56;7.00;99.90
26224;DHT22;14820;48.682;8.890;2023-04-03T16:59:22;7.20;99.90
26224;DHT22;14820;48.682;8.890;2023-04-03T17:01:48;7.40;99.90
26224;DHT22;14820;48.682;8.890;2023-04-03T17:04:14;7.50;99.90
26224;DHT22;14820;48.682;8.890;2023-04-03T17:06:39;7.50;99.90
26224;DHT22;14820;48.682;8.890;2023-04-03T17:09:06;7.40;99.90
26224;DHT22;14820;48.682;8.890;2023-04-03T17:11:32;7.20;99.90
26224;DHT22;14820;48.682;8.890;2023-04-03T17:13:58;7.10;99.90
26224;DHT22;14820;48.682;8.890;2023-04-03T17:16:24;6.90;99.90
26224;DHT22;14820;48.682;8.890;2023-04-03T17:19:00;6.80;99.90
26224;DHT22;14820;48.682;8.890;2023-04-03T17:21:26;6.70;99.90
26224;DHT22;14820;48.682;8.890;2023-04-03T17:23:56;6.50;99.90
26224;DHT22;14820;48.682;8.890;2023-04-03T17:26:24;6.40;99.90
26224;DHT22;14820;48.682;8.890;2023-04-03T17:28:51;6.30;99.90
26224;DHT22;14820;48.682;8.890;2023-04-03T17:31:17;6.20;99.90
26224;DHT22;14820;48.682;8.890;2023-04-03T17:33:42;6.10;99.90
26224;DHT22;14820;48.682;8.890;2023-04-03T17:36:08;6.00;99.90